Flag for Kazakhstan

Past Weather in Aqtobe, Kazakhstan — Yesterday and Last 2 Weeks

Currently: 90 °F. Sunny. (Weather station: Aktjubinsk, Kazakhstan). See more current weather

Past Weather in Aqtobe — Graph

°F

Aqtobe Temperature Yesterday

Maximum temperature yesterday: 97 °F (at 3:00 pm)
Minimum temperature yesterday: 59 °F (at 4:30 am)
Average temperature yesterday: 82 °F

High & Low Weather Summary for the Past Weeks

 TemperatureHumidityPressure
High99 °F (Jul 22, 4:00 pm)94% (Jul 24, 2:30 am)30.09 "Hg (Jul 24, 2:30 am)
Low50 °F (Jul 30, 2:30 am)16% (Aug 1, 1:00 pm)29.47 "Hg (Jul 23, 2:00 pm)
Average75 °F49%29.82 "Hg
* Reported Jul 18 1:00 pm — Aug 2 10:30 am, Aqtobe. Weather by CustomWeather, © 2021

Note: Actual official high and low records may vary slightly from our data, if they occured in-between our weather recording intervals... More about our weather records

Aqtobe Weather History for the Previous 24 Hours

Scroll right to see more
 ConditionsComfort  
Time TempWeatherWind HumidityBarometerVisibility
10:30 am
Mon, Aug 2
86 °FSunny.1 mph40%29.98 "Hg10 mi
10:00 am84 °FSunny.1 mph43%29.98 "Hg10 mi
9:30 am82 °FSunny.1 mph45%29.98 "Hg10 mi
9:00 am79 °FSunny.1 mph51%29.98 "Hg10 mi
8:30 am77 °FSunny.No wind51%29.98 "Hg10 mi
8:00 am73 °FSunny.No wind57%29.98 "Hg10 mi
7:30 am72 °FSunny.No wind61%29.98 "Hg10 mi
7:00 am68 °FSunny.1 mph69%29.98 "Hg10 mi
6:30 am64 °FSunny.No wind73%29.95 "Hg10 mi
6:00 am64 °FSunny.1 mph68%29.95 "Hg10 mi
4:30 am64 °FClear.1 mph78%29.95 "Hg10 mi
4:00 am66 °FClear.No wind73%29.95 "Hg10 mi
3:30 am66 °FClear.3 mph73%29.92 "Hg10 mi
3:00 am68 °FClear.3 mph69%29.92 "Hg10 mi
2:30 am68 °FClear.3 mph64%29.92 "Hg10 mi
2:00 am68 °FClear.1 mph64%29.92 "Hg10 mi
1:30 am70 °FClear.No wind64%29.92 "Hg10 mi
1:00 am70 °FClear.1 mph64%29.92 "Hg10 mi
12:30 am73 °FClear.3 mph53%29.92 "Hg10 mi
12:00 am72 °FClear.3 mph57%29.92 "Hg10 mi
11:30 pm
Sun, Aug 1
72 °FClear.1 mph57%29.92 "Hg10 mi
11:00 pm75 °FClear.1 mph50%29.92 "Hg10 mi
10:30 pm77 °FClear.3 mph47%29.92 "Hg10 mi
10:00 pm81 °FClear.No wind42%29.92 "Hg10 mi
9:30 pm86 °FClear.3 mph31%29.89 "Hg10 mi
9:00 pm86 °FClear.3 mph31%29.89 "Hg10 mi
8:30 pm88 °FSunny.6 mph29%29.89 "Hg10 mi
8:00 pm90 °FSunny.8 mph26%29.89 "Hg10 mi
7:30 pm91 °FSunny.10 mph24%29.89 "Hg10 mi
7:00 pm93 °FSunny.13 mph24%29.86 "Hg10 mi
6:30 pm95 °FSunny.10 mph22%29.86 "Hg10 mi
6:00 pm95 °FSunny.6 mph22%29.86 "Hg10 mi
5:30 pm93 °FSunny.6 mph24%29.89 "Hg10 mi
5:00 pm91 °FSunny.8 mph28%29.89 "Hg10 mi
4:30 pm93 °FSunny.8 mph24%29.89 "Hg10 mi
4:00 pm95 °FPassing clouds.6 mph22%29.89 "HgN/A
3:30 pm93 °FPassing clouds.10 mph23%29.89 "HgN/A
3:00 pm97 °FPassing clouds.6 mph20%29.89 "HgN/A
2:30 pm95 °FPassing clouds.8 mph23%29.89 "HgN/A
2:00 pm95 °FPassing clouds.10 mph18%29.89 "HgN/A
1:30 pm95 °FSunny.3 mph16%29.89 "Hg10 mi
1:00 pm95 °FPassing clouds.3 mph16%29.92 "HgN/A
12:30 pm95 °FPassing clouds.6 mph18%29.92 "HgN/A
11:30 am93 °FPassing clouds.6 mph23%29.92 "HgN/A
11:00 am91 °FSunny.1 mph26%29.92 "Hg10 mi
Weather by CustomWeather, © 2021

See weather overview